Time;durP1;ratioP1;P1;durP2;ratioP2;P2;SDS_P1;SDS_P2;PMS_P1;PMS_P2;Temp;Humidity;BMP_temperature;BMP_pressure;BME280_temperature;BME280_humidity;BME280_pressure;Samples;Min_cycle;Max_cycle;Signal;HPM_P1;HPM_P2
2023/05/25 00:01:18;;;;;;;9.40;5.68;;;9.60;99.90;;;;;;5049069;28;20113;-75
2023/05/25 00:03:44;;;;;;;10.13;6.63;;;9.60;99.90;;;;;;5076999;28;20123;-74
2023/05/25 00:06:14;;;;;;;13.50;6.72;;;9.50;99.90;;;;;;5064899;28;20047;-74
2023/05/25 00:08:40;;;;;;;11.40;6.70;;;9.50;99.90;;;;;;5079690;28;20089;-74
2023/05/25 00:11:06;;;;;;;13.13;5.60;;;9.50;99.90;;;;;;5082790;28;20039;-74
2023/05/25 00:13:31;;;;;;;12.75;7.18;;;9.50;99.90;;;;;;5060570;28;20046;-74
2023/05/25 00:15:57;;;;;;;13.35;7.20;;;9.50;99.90;;;;;;5062402;28;20045;-74
2023/05/25 00:18:26;;;;;;;11.98;6.18;;;9.50;99.90;;;;;;5082704;28;20532;-74
2023/05/25 00:20:53;;;;;;;12.27;6.30;;;9.50;99.90;;;;;;5083639;28;20040;-75
2023/05/25 00:23:21;;;;;;;14.05;6.55;;;9.40;99.90;;;;;;5079183;28;20135;-74
2023/05/25 00:25:47;;;;;;;13.38;6.95;;;9.40;99.90;;;;;;5049053;28;20126;-74
2023/05/25 00:28:16;;;;;;;13.38;6.05;;;9.40;99.90;;;;;;5041282;28;20143;-74
2023/05/25 00:30:42;;;;;;;12.52;6.28;;;9.30;99.90;;;;;;5078281;28;20121;-74
2023/05/25 00:33:10;;;;;;;10.77;5.80;;;9.30;99.90;;;;;;5042723;28;20052;-74
2023/05/25 00:35:36;;;;;;;9.70;5.20;;;9.20;99.90;;;;;;5041162;28;20102;-75
2023/05/25 00:38:02;;;;;;;13.43;6.85;;;9.20;99.90;;;;;;5049557;28;20676;-75
2023/05/25 00:40:28;;;;;;;13.32;6.75;;;9.10;99.90;;;;;;5060867;28;20109;-74
2023/05/25 00:42:55;;;;;;;11.25;6.72;;;9.00;99.90;;;;;;5036526;28;20048;-74
2023/05/25 00:45:21;;;;;;;11.32;6.47;;;9.10;99.90;;;;;;5077665;28;20048;-74
2023/05/25 00:47:53;;;;;;;13.95;7.00;;;9.00;99.90;;;;;;5067482;28;20756;-74
2023/05/25 00:50:25;;;;;;;12.20;6.70;;;9.00;99.90;;;;;;5045475;28;20052;-74
2023/05/25 00:52:54;;;;;;;10.70;6.00;;;9.00;99.90;;;;;;5064230;28;20055;-74
2023/05/25 00:55:37;;;;;;;11.82;5.85;;;9.00;99.90;;;;;;5078344;28;20047;-74
2023/05/25 00:58:05;;;;;;;11.75;5.93;;;9.00;99.90;;;;;;5080210;28;20048;-74
2023/05/25 01:00:34;;;;;;;10.18;5.60;;;8.90;99.90;;;;;;5057308;28;20498;-74
2023/05/25 01:03:06;;;;;;;14.05;6.88;;;8.80;99.90;;;;;;5093191;28;20477;-75
2023/05/25 01:05:34;;;;;;;10.35;5.78;;;8.70;99.90;;;;;;5063338;28;20040;-74
2023/05/25 01:08:04;;;;;;;10.13;5.57;;;8.70;99.90;;;;;;5063829;28;20044;-74
2023/05/25 01:10:36;;;;;;;10.40;5.95;;;8.70;99.90;;;;;;5076765;28;20510;-75
2023/05/25 01:13:03;;;;;;;9.90;6.28;;;8.60;99.90;;;;;;5071025;28;20044;-74
2023/05/25 01:15:31;;;;;;;11.35;6.20;;;8.60;99.90;;;;;;5082494;28;20044;-74
2023/05/25 01:17:58;;;;;;;13.73;7.13;;;8.60;99.90;;;;;;5058142;28;20066;-74
2023/05/25 01:20:30;;;;;;;14.13;7.68;;;8.60;99.90;;;;;;5061927;28;20048;-76
2023/05/25 01:26:10;;;;;;;13.48;7.88;;;8.50;99.90;;;;;;5079300;28;20048;-75
2023/05/25 01:28:41;;;;;;;13.45;7.32;;;8.40;99.90;;;;;;5058027;28;20040;-75
2023/05/25 01:31:08;;;;;;;9.85;6.32;;;8.30;99.90;;;;;;5080759;28;20047;-75
2023/05/25 01:33:35;;;;;;;15.48;9.20;;;8.20;99.90;;;;;;5062467;28;20047;-76
2023/05/25 01:36:02;;;;;;;14.70;8.70;;;8.10;99.90;;;;;;5080475;28;20121;-79
2023/05/25 01:38:28;;;;;;;11.13;6.72;;;8.10;99.90;;;;;;5032089;28;20036;-75
2023/05/25 01:40:54;;;;;;;11.80;7.55;;;8.00;99.90;;;;;;5078018;28;20040;-75
2023/05/25 01:43:19;;;;;;;13.88;7.03;;;8.00;99.90;;;;;;5063948;28;20044;-75
2023/05/25 01:45:51;;;;;;;12.30;7.95;;;8.10;99.90;;;;;;5081481;28;20493;-76
2023/05/25 01:48:35;;;;;;;15.52;8.48;;;8.10;99.90;;;;;;5064093;28;20055;-75
2023/05/25 01:51:14;;;;;;;13.85;7.03;;;8.20;99.90;;;;;;5079593;28;20051;-76
2023/05/25 01:53:50;;;;;;;12.27;7.05;;;8.20;99.90;;;;;;5079788;28;20052;-75
2023/05/25 01:56:16;;;;;;;11.18;6.45;;;8.20;99.90;;;;;;5075573;28;20453;-76
2023/05/25 01:58:45;;;;;;;11.68;6.72;;;8.10;99.90;;;;;;5082985;28;20797;-75
2023/05/25 02:01:14;;;;;;;15.32;8.13;;;8.10;99.90;;;;;;5079915;28;20074;-76
2023/05/25 02:03:41;;;;;;;14.68;8.07;;;8.00;99.90;;;;;;5071782;28;20412;-75
2023/05/25 02:06:07;;;;;;;13.23;8.10;;;8.00;99.90;;;;;;5062061;28;20494;-75
2023/05/25 02:08:33;;;;;;;12.45;7.75;;;7.90;99.90;;;;;;5061034;28;20113;-75
2023/05/25 02:10:59;;;;;;;12.60;7.90;;;7.90;99.90;;;;;;5059242;28;20044;-76
2023/05/25 02:13:25;;;;;;;11.52;7.85;;;7.90;99.90;;;;;;5067317;28;20098;-79
2023/05/25 02:15:52;;;;;;;13.07;6.97;;;7.90;99.90;;;;;;5083942;28;20075;-79
2023/05/25 02:18:17;;;;;;;12.95;7.82;;;7.90;99.90;;;;;;5042759;28;20658;-79
2023/05/25 02:20:44;;;;;;;12.35;7.35;;;7.90;99.90;;;;;;5047690;28;20113;-79
2023/05/25 02:23:10;;;;;;;10.68;7.22;;;8.00;99.90;;;;;;5057882;28;20063;-79
2023/05/25 02:25:36;;;;;;;13.65;8.02;;;8.00;99.90;;;;;;5065911;28;20041;-79
2023/05/25 02:28:02;;;;;;;13.05;7.47;;;8.00;99.90;;;;;;5060112;28;20046;-78
2023/05/25 02:30:28;;;;;;;11.38;7.78;;;8.00;99.90;;;;;;5059313;28;20048;-76
2023/05/25 02:32:55;;;;;;;11.70;6.60;;;8.00;99.90;;;;;;5058481;28;20097;-75
2023/05/25 02:35:24;;;;;;;15.05;9.30;;;8.00;99.90;;;;;;5039239;28;20131;-76
2023/05/25 02:37:50;;;;;;;18.90;11.45;;;8.00;99.90;;;;;;5073907;28;20530;-75
2023/05/25 02:40:16;;;;;;;24.48;12.75;;;7.90;99.90;;;;;;5071509;28;20067;-75
2023/05/25 02:42:42;;;;;;;11.50;8.23;;;7.90;99.90;;;;;;5072531;28;20057;-75
2023/05/25 02:45:11;;;;;;;16.17;9.57;;;7.90;99.90;;;;;;5073400;28;20048;-75
2023/05/25 02:47:37;;;;;;;14.75;9.23;;;7.80;99.90;;;;;;5063388;28;20040;-75
2023/05/25 02:50:04;;;;;;;14.98;10.15;;;7.80;99.90;;;;;;5087886;28;20045;-76
2023/05/25 02:52:30;;;;;;;15.35;10.70;;;7.80;99.90;;;;;;5051541;28;20488;-75
2023/05/25 02:54:56;;;;;;;12.55;8.82;;;7.80;99.90;;;;;;5077981;28;20066;-75
2023/05/25 02:57:22;;;;;;;13.27;8.32;;;7.70;99.90;;;;;;5072767;28;20044;-75
2023/05/25 02:59:48;;;;;;;28.45;14.68;;;7.70;99.90;;;;;;5056805;28;20500;-75
2023/05/25 03:02:17;;;;;;;15.43;9.85;;;7.70;99.90;;;;;;5069583;28;20103;-75
2023/05/25 03:04:48;;;;;;;13.38;9.63;;;7.70;99.90;;;;;;5084639;28;20062;-76
2023/05/25 03:07:14;;;;;;;15.52;10.07;;;7.80;99.90;;;;;;5067996;28;20383;-75
2023/05/25 03:09:40;;;;;;;19.00;10.32;;;7.70;99.90;;;;;;5059105;28;20055;-75
2023/05/25 03:12:09;;;;;;;14.15;8.68;;;7.70;99.90;;;;;;5066063;28;20047;-75
2023/05/25 03:14:34;;;;;;;15.43;9.65;;;7.70;99.90;;;;;;5076217;28;20044;-75
2023/05/25 03:17:00;;;;;;;15.07;9.90;;;7.70;99.90;;;;;;5076644;28;20490;-75
2023/05/25 03:19:26;;;;;;;15.38;10.27;;;7.80;99.90;;;;;;5060651;28;20049;-75
2023/05/25 03:21:52;;;;;;;16.80;11.82;;;7.80;99.90;;;;;;5072440;28;20044;-79
2023/05/25 03:24:17;;;;;;;21.42;12.15;;;7.80;99.90;;;;;;5062414;28;20052;-78
2023/05/25 03:26:43;;;;;;;21.92;12.75;;;7.90;99.90;;;;;;5050423;28;20352;-75
2023/05/25 03:29:09;;;;;;;15.38;10.60;;;7.90;99.90;;;;;;5097878;28;20572;-75
2023/05/25 03:31:35;;;;;;;29.42;15.70;;;7.90;99.90;;;;;;5079064;28;20131;-76
2023/05/25 03:34:02;;;;;;;15.63;11.52;;;7.90;99.90;;;;;;5056109;28;21188;-76
2023/05/25 03:36:31;;;;;;;14.80;10.10;;;8.00;99.90;;;;;;5056558;28;20116;-75
2023/05/25 03:38:56;;;;;;;18.45;11.70;;;8.00;99.90;;;;;;5073052;28;20056;-75
2023/05/25 03:41:22;;;;;;;14.95;9.85;;;8.00;99.90;;;;;;5063625;28;20033;-75
2023/05/25 03:43:48;;;;;;;14.70;10.63;;;8.00;99.90;;;;;;5061860;28;20127;-76
2023/05/25 03:46:14;;;;;;;20.27;11.18;;;8.00;99.90;;;;;;5082636;28;20765;-76
2023/05/25 03:48:42;;;;;;;15.23;10.90;;;8.00;99.90;;;;;;5077222;28;20059;-75
2023/05/25 03:51:08;;;;;;;15.13;10.40;;;7.90;99.90;;;;;;5081679;28;20071;-75
2023/05/25 03:53:34;;;;;;;21.65;13.30;;;7.90;99.90;;;;;;5063642;28;20495;-75
2023/05/25 03:56:00;;;;;;;24.10;14.70;;;7.90;99.90;;;;;;5064792;28;20036;-76
2023/05/25 03:58:25;;;;;;;24.88;13.48;;;8.00;99.90;;;;;;5095160;28;20130;-75
2023/05/25 04:00:51;;;;;;;23.60;12.57;;;8.00;99.90;;;;;;5051262;28;20071;-75
2023/05/25 04:03:17;;;;;;;19.38;11.80;;;8.10;99.90;;;;;;5053900;28;20105;-76
2023/05/25 04:05:49;;;;;;;28.08;14.57;;;8.20;99.90;;;;;;5081310;28;20048;-75
2023/05/25 04:08:18;;;;;;;28.05;15.60;;;8.10;99.90;;;;;;5042247;28;20486;-75
2023/05/25 04:10:45;;;;;;;16.50;10.40;;;8.20;99.90;;;;;;5065397;28;20123;-75
2023/05/25 04:13:11;;;;;;;16.52;10.57;;;8.20;99.90;;;;;;5071161;28;20192;-76
2023/05/25 04:15:37;;;;;;;15.52;10.25;;;8.20;99.90;;;;;;5083954;28;20047;-75
2023/05/25 04:18:03;;;;;;;17.23;11.05;;;8.20;99.90;;;;;;5072837;28;20048;-76
2023/05/25 04:20:29;;;;;;;22.63;14.50;;;8.20;99.90;;;;;;5045197;28;20040;-76
2023/05/25 04:22:55;;;;;;;23.73;14.25;;;8.30;99.90;;;;;;5084231;28;20036;-76
2023/05/25 04:25:21;;;;;;;31.95;17.10;;;8.30;99.90;;;;;;5073434;28;20380;-75
2023/05/25 04:27:47;;;;;;;28.60;16.38;;;8.30;99.90;;;;;;5082033;28;20049;-75
2023/05/25 04:30:14;;;;;;;29.33;16.23;;;8.30;99.90;;;;;;5063303;28;20135;-76
2023/05/25 04:32:40;;;;;;;25.75;15.70;;;8.40;99.90;;;;;;5063653;28;20554;-76
2023/05/25 04:35:06;;;;;;;25.50;14.43;;;8.40;99.90;;;;;;5061288;28;20058;-76
2023/05/25 04:37:32;;;;;;;32.42;17.85;;;8.50;99.90;;;;;;5064258;28;20056;-76
2023/05/25 04:39:58;;;;;;;23.20;14.35;;;8.60;99.90;;;;;;5066193;28;20426;-76
2023/05/25 04:42:25;;;;;;;23.33;14.95;;;8.60;99.90;;;;;;5062930;28;20041;-76
2023/05/25 04:44:54;;;;;;;26.02;15.82;;;8.60;99.90;;;;;;5061429;28;20391;-76
2023/05/25 04:47:21;;;;;;;21.92;13.68;;;8.70;99.90;;;;;;5051661;28;20070;-75
2023/05/25 04:49:47;;;;;;;27.55;16.10;;;8.70;99.90;;;;;;5094356;28;20380;-75
2023/05/25 04:52:13;;;;;;;28.92;16.83;;;8.80;99.90;;;;;;5048314;28;20043;-75
2023/05/25 04:54:38;;;;;;;38.20;20.42;;;8.80;99.90;;;;;;5078494;28;20051;-75
2023/05/25 04:57:05;;;;;;;28.63;17.48;;;8.80;99.90;;;;;;5062489;28;20062;-76
2023/05/25 04:59:30;;;;;;;25.95;17.38;;;8.90;99.90;;;;;;5031231;28;20039;-76
2023/05/25 05:01:56;;;;;;;24.77;17.15;;;9.00;99.90;;;;;;5063914;28;20402;-76
2023/05/25 05:04:22;;;;;;;31.33;18.23;;;9.00;99.90;;;;;;5047487;28;20411;-76
2023/05/25 05:06:48;;;;;;;31.85;18.38;;;9.10;99.90;;;;;;5061064;28;20036;-76
2023/05/25 05:09:13;;;;;;;31.90;18.98;;;9.10;99.90;;;;;;5062339;28;20044;-76
2023/05/25 05:11:39;;;;;;;31.02;19.25;;;9.20;99.90;;;;;;5062329;28;20039;-75
2023/05/25 05:14:05;;;;;;;31.60;18.10;;;9.30;99.90;;;;;;5044468;28;20281;-76
2023/05/25 05:16:33;;;;;;;32.47;19.05;;;9.30;99.90;;;;;;5064613;28;20039;-75
2023/05/25 05:19:00;;;;;;;33.00;19.38;;;9.40;99.90;;;;;;5058622;28;20068;-76
2023/05/25 05:21:26;;;;;;;27.75;19.02;;;9.50;99.90;;;;;;5059361;28;20038;-76
2023/05/25 05:23:51;;;;;;;35.45;19.45;;;9.50;99.90;;;;;;5061320;28;20055;-76
2023/05/25 05:26:17;;;;;;;30.40;19.30;;;9.60;99.90;;;;;;5061024;28;20047;-75
2023/05/25 05:28:43;;;;;;;30.27;18.42;;;9.70;99.90;;;;;;5079026;28;20097;-76
2023/05/25 05:31:10;;;;;;;22.90;15.80;;;9.80;99.90;;;;;;5080657;28;20402;-76
2023/05/25 05:33:36;;;;;;;27.77;17.00;;;9.90;99.90;;;;;;5059471;28;20478;-76
2023/05/25 05:36:03;;;;;;;30.08;19.48;;;9.90;99.90;;;;;;5062721;28;20036;-75
2023/05/25 05:38:29;;;;;;;29.90;20.10;;;10.00;99.90;;;;;;5064817;28;20048;-76
2023/05/25 05:40:58;;;;;;;31.88;20.05;;;10.10;99.90;;;;;;5047020;28;20048;-76
2023/05/25 05:43:25;;;;;;;30.80;17.63;;;10.20;99.90;;;;;;5062237;28;20097;-75
2023/05/25 05:45:51;;;;;;;32.75;19.60;;;10.30;99.90;;;;;;5071922;28;20511;-76
2023/05/25 05:48:17;;;;;;;31.40;18.42;;;10.40;99.90;;;;;;5043744;28;20048;-76
2023/05/25 05:50:42;;;;;;;25.98;18.02;;;10.40;99.90;;;;;;5058689;28;20204;-75
2023/05/25 05:53:08;;;;;;;24.38;16.67;;;10.50;99.90;;;;;;5062528;28;20450;-74
2023/05/25 05:55:35;;;;;;;32.50;18.98;;;10.60;99.90;;;;;;5074058;28;20052;-75
2023/05/25 05:58:00;;;;;;;26.33;16.65;;;10.70;99.90;;;;;;5061040;28;20079;-75
2023/05/25 06:00:30;;;;;;;27.70;16.88;;;10.80;99.90;;;;;;5063859;28;20080;-74
2023/05/25 06:02:55;;;;;;;23.97;15.87;;;10.90;99.90;;;;;;5061913;28;20031;-75
2023/05/25 06:05:21;;;;;;;22.00;15.18;;;11.00;99.90;;;;;;5063297;28;20316;-74
2023/05/25 06:07:48;;;;;;;22.67;14.10;;;11.10;99.90;;;;;;5063919;28;20148;-75
2023/05/25 06:10:14;;;;;;;23.38;13.65;;;11.20;99.90;;;;;;5083305;28;20056;-75
2023/05/25 06:12:39;;;;;;;23.17;11.75;;;11.40;99.90;;;;;;5044281;28;20044;-74
2023/05/25 06:15:06;;;;;;;21.55;11.50;;;11.50;99.90;;;;;;5064433;28;20036;-75
2023/05/25 06:17:32;;;;;;;20.25;11.15;;;11.60;99.90;;;;;;5077373;28;20050;-75
2023/05/25 06:19:58;;;;;;;20.50;9.70;;;11.80;99.90;;;;;;5048005;28;20036;-75
2023/05/25 06:22:26;;;;;;;15.80;8.88;;;11.90;99.90;;;;;;5078160;28;20040;-75
2023/05/25 06:24:52;;;;;;;16.77;9.52;;;12.00;99.90;;;;;;5048951;28;20039;-75
2023/05/25 06:27:18;;;;;;;14.05;9.43;;;12.00;99.90;;;;;;5043109;28;20523;-74
2023/05/25 06:29:44;;;;;;;16.85;8.75;;;12.10;99.90;;;;;;5062648;28;20055;-74
2023/05/25 06:32:10;;;;;;;16.60;8.07;;;12.10;99.90;;;;;;5060099;28;20040;-75
2023/05/25 06:34:36;;;;;;;14.85;7.95;;;12.20;99.90;;;;;;5055709;28;20109;-74
2023/05/25 06:37:02;;;;;;;14.27;7.75;;;12.30;99.90;;;;;;5095990;28;20128;-74
2023/05/25 06:39:28;;;;;;;14.50;6.72;;;12.40;99.90;;;;;;5058813;28;20397;-75
2023/05/25 06:41:53;;;;;;;15.25;7.22;;;12.50;99.90;;;;;;5061873;28;20239;-74
2023/05/25 06:44:22;;;;;;;16.30;7.18;;;12.60;99.90;;;;;;5080241;28;20048;-75
2023/05/25 06:46:48;;;;;;;17.67;7.30;;;12.70;99.90;;;;;;5097933;28;20528;-75
2023/05/25 06:49:14;;;;;;;17.35;6.97;;;12.70;99.90;;;;;;5066343;28;20044;-74
2023/05/25 06:51:40;;;;;;;17.75;6.75;;;12.90;99.90;;;;;;5049256;28;20130;-74
2023/05/25 06:54:07;;;;;;;13.80;5.72;;;12.90;99.90;;;;;;5064428;28;20136;-75
2023/05/25 06:56:33;;;;;;;13.77;5.93;;;13.00;99.90;;;;;;5049485;28;20529;-75
2023/05/25 06:58:59;;;;;;;16.17;6.57;;;13.00;99.90;;;;;;5082803;28;20510;-74
2023/05/25 07:01:25;;;;;;;13.57;5.63;;;13.10;99.90;;;;;;5082647;28;20097;-74
2023/05/25 07:03:51;;;;;;;13.32;5.70;;;13.10;99.90;;;;;;5050289;28;20058;-73
2023/05/25 07:06:17;;;;;;;14.85;5.18;;;13.20;99.90;;;;;;5080271;28;20044;-73
2023/05/25 07:08:43;;;;;;;12.90;5.10;;;13.20;99.90;;;;;;5067562;28;20048;-74
2023/05/25 07:11:11;;;;;;;15.13;5.35;;;13.30;99.90;;;;;;5080536;28;20044;-72
2023/05/25 07:13:37;;;;;;;15.68;5.68;;;13.40;99.90;;;;;;5049689;28;20043;-74
2023/05/25 07:16:03;;;;;;;15.02;5.25;;;13.40;99.90;;;;;;5052820;28;20071;-73
2023/05/25 07:18:28;;;;;;;17.35;5.13;;;13.40;99.90;;;;;;5081147;28;20128;-74
2023/05/25 07:20:54;;;;;;;11.75;5.10;;;13.40;99.90;;;;;;5061409;28;20082;-74
2023/05/25 07:23:23;;;;;;;13.82;4.53;;;13.50;99.90;;;;;;5063537;28;20446;-74
2023/05/25 07:25:48;;;;;;;15.80;5.18;;;13.40;99.90;;;;;;5080167;28;20048;-73
2023/05/25 07:28:14;;;;;;;18.10;5.15;;;13.40;99.90;;;;;;5063294;28;20120;-74
2023/05/25 07:30:40;;;;;;;15.13;5.25;;;13.50;99.90;;;;;;5052006;28;20044;-73
2023/05/25 07:33:06;;;;;;;18.23;5.53;;;13.60;99.90;;;;;;5033003;28;20832;-74
2023/05/25 07:35:34;;;;;;;15.35;5.18;;;13.60;99.90;;;;;;5077897;28;20361;-73
2023/05/25 07:38:03;;;;;;;13.82;5.35;;;13.70;99.90;;;;;;5078198;28;20028;-74
2023/05/25 07:40:29;;;;;;;19.50;5.72;;;13.80;99.90;;;;;;5051518;28;20770;-74
2023/05/25 07:42:55;;;;;;;13.32;4.88;;;13.80;99.90;;;;;;5077582;28;20045;-73
2023/05/25 07:45:21;;;;;;;16.45;4.95;;;13.90;99.90;;;;;;5080502;28;20050;-74
2023/05/25 07:47:47;;;;;;;12.80;4.20;;;14.00;99.90;;;;;;5049532;28;20039;-74
2023/05/25 07:50:14;;;;;;;15.07;4.72;;;14.00;99.90;;;;;;5065190;28;20044;-73
2023/05/25 07:52:40;;;;;;;15.40;4.65;;;13.90;99.90;;;;;;5080695;28;20410;-75
2023/05/25 07:55:07;;;;;;;14.43;4.63;;;14.00;99.90;;;;;;5081379;28;20678;-74
2023/05/25 07:57:33;;;;;;;16.58;5.00;;;14.10;99.90;;;;;;5081457;28;20048;-76
2023/05/25 07:59:59;;;;;;;20.13;6.32;;;14.20;99.90;;;;;;5077575;28;20036;-75
2023/05/25 08:02:25;;;;;;;17.35;5.60;;;14.40;99.90;;;;;;5065412;28;20040;-76
2023/05/25 08:04:51;;;;;;;17.48;5.78;;;14.50;99.90;;;;;;5064318;28;20486;-75
2023/05/25 08:07:20;;;;;;;16.15;5.00;;;14.50;99.90;;;;;;5082364;28;20044;-77
2023/05/25 08:09:46;;;;;;;16.00;5.23;;;14.60;99.90;;;;;;5066625;28;20070;-76
2023/05/25 08:12:12;;;;;;;13.98;4.82;;;14.60;99.90;;;;;;5050592;28;20664;-76
2023/05/25 08:14:38;;;;;;;18.15;5.00;;;14.60;99.90;;;;;;5078701;28;20055;-74
2023/05/25 08:17:04;;;;;;;17.70;5.13;;;14.70;99.90;;;;;;5064542;28;20487;-75
2023/05/25 08:19:31;;;;;;;19.48;5.88;;;14.80;99.90;;;;;;5060731;28;20509;-76
2023/05/25 08:21:57;;;;;;;18.17;6.40;;;14.80;99.90;;;;;;5079777;28;20115;-75
2023/05/25 08:24:23;;;;;;;17.63;5.80;;;14.80;99.90;;;;;;5064764;28;20047;-76
2023/05/25 08:26:48;;;;;;;15.43;5.47;;;14.70;99.90;;;;;;5084648;28;20059;-76
2023/05/25 08:29:14;;;;;;;10.60;3.95;;;14.70;99.90;;;;;;5044089;28;20058;-76
2023/05/25 08:31:42;;;;;;;13.60;4.18;;;14.60;99.90;;;;;;5082242;28;20475;-75
2023/05/25 08:34:08;;;;;;;14.80;4.80;;;14.60;99.90;;;;;;5078141;28;20154;-75
2023/05/25 08:36:34;;;;;;;16.20;5.32;;;14.60;99.90;;;;;;5062117;28;20059;-75
2023/05/25 08:39:02;;;;;;;16.92;5.05;;;14.50;99.90;;;;;;5058453;28;20046;-75
2023/05/25 08:41:28;;;;;;;23.13;5.55;;;14.40;99.90;;;;;;5045706;28;20129;-75
2023/05/25 08:43:54;;;;;;;19.98;5.38;;;14.30;99.90;;;;;;5059427;28;20040;-74
2023/05/25 08:46:30;;;;;;;16.98;5.05;;;14.20;99.90;;;;;;5064461;28;20044;-75
2023/05/25 08:49:04;;;;;;;14.75;4.72;;;14.10;99.90;;;;;;5062127;28;20110;-75
2023/05/25 08:51:36;;;;;;;21.10;6.07;;;14.10;99.90;;;;;;5079615;28;20402;-75
2023/05/25 08:54:11;;;;;;;16.70;5.32;;;14.20;99.90;;;;;;5079280;28;20036;-75
2023/05/25 08:57:10;;;;;;;19.55;6.20;;;14.30;99.90;;;;;;5096543;28;20040;-76
2023/05/25 08:59:38;;;;;;;24.15;5.50;;;14.30;99.90;;;;;;5076995;28;20151;-75
2023/05/25 09:02:28;;;;;;;24.25;6.63;;;14.30;99.90;;;;;;5065232;28;20044;-75
2023/05/25 09:04:54;;;;;;;18.17;6.18;;;14.40;99.90;;;;;;5078719;28;20063;-75
2023/05/25 09:07:21;;;;;;;17.58;5.93;;;14.30;99.90;;;;;;5064638;28;20128;-75
2023/05/25 09:09:51;;;;;;;19.92;5.40;;;14.30;99.90;;;;;;5068902;28;20062;-75
2023/05/25 09:12:17;;;;;;;18.05;5.53;;;14.40;99.90;;;;;;5045693;28;20068;-75
2023/05/25 09:14:46;;;;;;;22.77;5.63;;;14.60;99.90;;;;;;5080412;28;20467;-76
2023/05/25 09:17:17;;;;;;;23.13;6.13;;;14.70;99.90;;;;;;5048508;28;20068;-75
2023/05/25 09:19:43;;;;;;;23.40;7.03;;;14.70;99.90;;;;;;5048478;28;20115;-76
2023/05/25 09:22:10;;;;;;;20.98;6.75;;;14.60;99.90;;;;;;5077420;28;20457;-76
2023/05/25 09:24:36;;;;;;;23.55;6.88;;;14.70;99.90;;;;;;5066463;28;20052;-75
2023/05/25 09:27:02;;;;;;;18.30;5.75;;;14.70;99.90;;;;;;5093358;28;20048;-75
2023/05/25 09:29:28;;;;;;;15.27;4.85;;;14.80;99.90;;;;;;5064857;28;20036;-75
2023/05/25 09:31:55;;;;;;;19.88;6.18;;;15.00;99.90;;;;;;5046564;28;20177;-76
2023/05/25 09:34:30;;;;;;;21.45;6.03;;;15.30;99.90;;;;;;5078052;28;20040;-76
2023/05/25 09:36:56;;;;;;;20.30;5.88;;;15.40;99.90;;;;;;5061918;28;20082;-76
2023/05/25 09:39:21;;;;;;;20.23;5.50;;;15.40;99.90;;;;;;5083098;28;20491;-76
2023/05/25 09:41:48;;;;;;;20.00;6.47;;;15.30;99.90;;;;;;5063189;28;20513;-76
2023/05/25 09:44:14;;;;;;;20.40;5.43;;;15.20;99.90;;;;;;5079654;28;20033;-75
2023/05/25 09:46:40;;;;;;;20.98;5.85;;;15.10;99.90;;;;;;5077337;28;20056;-75
2023/05/25 09:49:10;;;;;;;21.55;6.85;;;15.10;99.90;;;;;;5067950;28;20406;-75
2023/05/25 09:51:36;;;;;;;18.48;5.45;;;15.10;99.90;;;;;;5080253;28;20502;-75
2023/05/25 09:54:10;;;;;;;15.73;4.72;;;15.30;99.90;;;;;;5062267;28;20039;-77
2023/05/25 09:56:36;;;;;;;20.73;6.13;;;15.40;98.70;;;;;;5079306;28;20058;-77
2023/05/25 09:59:02;;;;;;;16.65;5.15;;;15.40;98.50;;;;;;5062723;28;20078;-77
2023/05/25 19:27:07;;;;;;;24.23;7.13;;;11.90;99.90;;;;;;5073963;27;20397;-78
2023/05/25 19:29:35;;;;;;;25.77;7.13;;;12.00;99.90;;;;;;5022270;28;20423;-80
2023/05/25 19:32:05;;;;;;;28.42;6.65;;;11.80;99.90;;;;;;4977247;28;20045;-78
2023/05/25 19:34:31;;;;;;;29.10;8.45;;;11.70;99.90;;;;;;5010118;28;20044;-78
2023/05/25 19:37:00;;;;;;;24.73;7.30;;;11.70;99.90;;;;;;4977114;28;20052;-78
2023/05/25 19:39:26;;;;;;;25.90;7.10;;;11.60;99.90;;;;;;5011219;28;20131;-78
2023/05/25 19:41:53;;;;;;;22.08;5.57;;;11.60;99.90;;;;;;4996241;28;20602;-79
2023/05/25 19:44:19;;;;;;;24.17;6.43;;;11.50;99.90;;;;;;5010706;28;20389;-78
2023/05/25 19:46:45;;;;;;;27.40;6.55;;;11.50;99.90;;;;;;4990896;28;20052;-78
2023/05/25 19:49:11;;;;;;;23.05;6.65;;;11.50;99.90;;;;;;4999812;28;20059;-79
2023/05/25 19:51:38;;;;;;;32.70;7.60;;;11.50;99.90;;;;;;4989806;28;20549;-78
2023/05/25 19:54:04;;;;;;;27.77;8.25;;;11.40;99.90;;;;;;4985564;28;20139;-79
2023/05/25 19:56:30;;;;;;;27.00;7.07;;;11.40;99.90;;;;;;5003575;28;20721;-80
2023/05/25 19:59:03;;;;;;;23.60;6.72;;;11.30;99.90;;;;;;5003026;28;20048;-78
2023/05/25 20:01:30;;;;;;;25.17;6.72;;;11.30;99.90;;;;;;5020485;28;20487;-78
2023/05/25 20:03:56;;;;;;;24.05;6.57;;;11.20;99.90;;;;;;5018855;28;20051;-79
2023/05/25 20:06:22;;;;;;;23.05;6.63;;;11.20;99.90;;;;;;4986720;28;20052;-79
2023/05/25 20:08:48;;;;;;;27.05;6.95;;;11.20;99.90;;;;;;5002471;28;20996;-77
2023/05/25 20:11:14;;;;;;;25.55;6.53;;;11.20;99.90;;;;;;5003362;28;20067;-76
2023/05/25 20:13:40;;;;;;;27.70;7.65;;;11.10;99.90;;;;;;5003090;28;20048;-78
2023/05/25 20:16:09;;;;;;;24.10;6.82;;;11.10;99.90;;;;;;5003366;28;20052;-78
2023/05/25 20:18:44;;;;;;;22.77;5.97;;;11.00;99.90;;;;;;4986274;28;20139;-76
2023/05/25 20:21:10;;;;;;;27.63;7.03;;;11.10;99.90;;;;;;4992243;28;20716;-77
2023/05/25 20:23:42;;;;;;;23.23;6.10;;;11.00;99.90;;;;;;5005961;28;20076;-78
2023/05/25 20:26:08;;;;;;;21.60;6.32;;;10.90;99.90;;;;;;5019354;28;20563;-76
2023/05/25 20:28:34;;;;;;;25.15;7.05;;;10.90;99.90;;;;;;4987292;28;20052;-78
2023/05/25 20:31:01;;;;;;;22.45;6.50;;;10.90;99.90;;;;;;4990793;28;20225;-80
2023/05/25 20:33:27;;;;;;;25.15;6.85;;;10.80;99.90;;;;;;4989388;28;20066;-79
2023/05/25 20:35:56;;;;;;;24.08;6.65;;;10.80;99.90;;;;;;4986932;28;20566;-79
2023/05/25 20:38:22;;;;;;;20.35;5.88;;;10.80;99.90;;;;;;4989945;28;20313;-78
2023/05/25 20:40:48;;;;;;;29.10;7.38;;;10.80;99.90;;;;;;4967448;28;20227;-78
2023/05/25 20:43:14;;;;;;;22.50;6.43;;;10.70;99.90;;;;;;4989832;28;20848;-78
2023/05/25 20:45:44;;;;;;;22.08;5.82;;;10.70;99.90;;;;;;4976046;28;20725;-77
2023/05/25 20:48:10;;;;;;;26.45;6.97;;;10.70;99.90;;;;;;4965887;28;20904;-77
2023/05/25 20:50:36;;;;;;;27.05;7.20;;;10.70;99.90;;;;;;4993218;28;20113;-79
2023/05/25 20:53:03;;;;;;;21.42;6.63;;;10.70;99.90;;;;;;5008113;28;20070;-78
2023/05/25 20:55:29;;;;;;;30.70;7.50;;;10.70;99.90;;;;;;4991817;28;20578;-79
2023/05/25 20:57:59;;;;;;;24.95;6.18;;;10.70;99.90;;;;;;4990243;28;20070;-79
2023/05/25 21:00:25;;;;;;;23.75;6.65;;;10.80;99.90;;;;;;5005027;28;20400;-79
2023/05/25 21:02:51;;;;;;;23.13;6.18;;;10.70;99.90;;;;;;5007844;28;21896;-78
2023/05/25 21:05:17;;;;;;;24.52;6.60;;;10.60;99.90;;;;;;4993905;28;20831;-77
2023/05/25 21:07:44;;;;;;;28.50;6.57;;;10.60;99.90;;;;;;4994385;28;20044;-80
2023/05/25 21:10:13;;;;;;;30.00;6.93;;;10.60;99.90;;;;;;5009490;28;20064;-77
2023/05/25 21:12:41;;;;;;;27.30;6.78;;;10.60;99.90;;;;;;5012231;28;20082;-76
2023/05/25 21:15:10;;;;;;;27.38;6.90;;;10.60;99.90;;;;;;4993900;28;20055;-78
2023/05/25 21:17:37;;;;;;;25.58;6.25;;;10.50;99.90;;;;;;4993104;28;20041;-79
2023/05/25 21:20:03;;;;;;;21.70;6.57;;;10.50;99.90;;;;;;5009901;28;20472;-79
2023/05/25 21:22:29;;;;;;;20.58;5.47;;;10.50;99.90;;;;;;4997206;28;20049;-77
2023/05/25 21:24:56;;;;;;;23.33;6.30;;;10.40;99.90;;;;;;4993312;28;20051;-78
2023/05/25 21:27:22;;;;;;;26.63;7.25;;;10.40;99.90;;;;;;4979389;28;20171;-79
2023/05/25 21:29:48;;;;;;;24.35;7.38;;;10.40;99.90;;;;;;4978735;28;20116;-79
2023/05/25 21:32:14;;;;;;;22.65;6.47;;;10.40;99.90;;;;;;4977536;28;20056;-79
2023/05/25 21:34:41;;;;;;;26.02;6.65;;;10.40;99.90;;;;;;5011886;28;20051;-77
2023/05/25 21:37:07;;;;;;;26.58;6.97;;;10.30;99.90;;;;;;4977858;28;21125;-77
2023/05/25 21:39:33;;;;;;;29.20;7.07;;;10.20;99.90;;;;;;4993590;28;20581;-77
2023/05/25 21:42:01;;;;;;;23.80;7.05;;;10.20;99.90;;;;;;4987192;28;20044;-77
2023/05/25 21:44:27;;;;;;;24.75;6.90;;;10.10;99.90;;;;;;4980714;28;20163;-77
2023/05/25 21:46:53;;;;;;;25.00;6.82;;;10.10;99.90;;;;;;5012199;28;20049;-77
2023/05/25 21:49:22;;;;;;;19.73;5.90;;;10.10;99.90;;;;;;4993623;28;20052;-77
2023/05/25 21:51:48;;;;;;;24.27;6.22;;;10.20;99.90;;;;;;4995499;28;20052;-76
2023/05/25 21:54:14;;;;;;;20.00;6.45;;;10.10;99.90;;;;;;4993701;28;20094;-76
2023/05/25 21:56:40;;;;;;;28.52;6.97;;;10.10;99.90;;;;;;4995532;28;20055;-77
2023/05/25 21:59:06;;;;;;;21.30;6.30;;;10.10;99.90;;;;;;5013442;28;20056;-76
2023/05/25 22:01:38;;;;;;;18.55;5.95;;;10.10;99.90;;;;;;4977910;28;20706;-76
2023/05/25 22:04:04;;;;;;;22.90;6.65;;;10.10;99.90;;;;;;4974842;28;20246;-77
2023/05/25 22:06:33;;;;;;;26.80;7.53;;;10.10;99.90;;;;;;4990720;28;20693;-76